sensor_id;sensor_type;location;lat;lon;timestamp;P1;durP1;ratioP1;P2;durP2;ratioP2
27893;SDS011;15240;50.812;4.792;2024-03-23T00:55:13;16.70;;;4.70;;
27893;SDS011;15240;50.812;4.792;2024-03-23T00:57:39;15.80;;;4.73;;
27893;SDS011;15240;50.812;4.792;2024-03-23T01:00:05;19.33;;;5.57;;
27893;SDS011;15240;50.812;4.792;2024-03-23T01:02:32;19.30;;;5.60;;
27893;SDS011;15240;50.812;4.792;2024-03-23T01:04:58;13.23;;;5.03;;
27893;SDS011;15240;50.812;4.792;2024-03-23T01:07:24;16.53;;;4.93;;
27893;SDS011;15240;50.812;4.792;2024-03-23T01:09:50;19.60;;;5.23;;
27893;SDS011;15240;50.812;4.792;2024-03-23T01:12:17;14.43;;;5.47;;
27893;SDS011;15240;50.812;4.792;2024-03-23T01:14:43;18.40;;;5.50;;
27893;SDS011;15240;50.812;4.792;2024-03-23T01:17:09;19.07;;;5.30;;
27893;SDS011;15240;50.812;4.792;2024-03-23T01:19:35;18.73;;;5.80;;
27893;SDS011;15240;50.812;4.792;2024-03-23T01:22:01;16.47;;;5.33;;
27893;SDS011;15240;50.812;4.792;2024-03-23T01:24:27;20.73;;;6.30;;
27893;SDS011;15240;50.812;4.792;2024-03-23T01:26:53;17.83;;;5.53;;
27893;SDS011;15240;50.812;4.792;2024-03-23T01:29:19;18.57;;;5.63;;
27893;SDS011;15240;50.812;4.792;2024-03-23T01:31:45;18.93;;;5.40;;
27893;SDS011;15240;50.812;4.792;2024-03-23T01:34:11;17.90;;;5.30;;
27893;SDS011;15240;50.812;4.792;2024-03-23T01:36:37;23.13;;;6.23;;
27893;SDS011;15240;50.812;4.792;2024-03-23T01:39:04;22.80;;;6.30;;
27893;SDS011;15240;50.812;4.792;2024-03-23T01:41:30;19.30;;;6.43;;
27893;SDS011;15240;50.812;4.792;2024-03-23T01:43:56;26.77;;;7.50;;
27893;SDS011;15240;50.812;4.792;2024-03-23T01:46:22;19.33;;;6.67;;
27893;SDS011;15240;50.812;4.792;2024-03-23T01:48:48;29.10;;;7.57;;
27893;SDS011;15240;50.812;4.792;2024-03-23T01:51:14;29.30;;;7.90;;
27893;SDS011;15240;50.812;4.792;2024-03-23T01:53:40;25.40;;;7.70;;
27893;SDS011;15240;50.812;4.792;2024-03-23T01:56:07;25.00;;;7.63;;
27893;SDS011;15240;50.812;4.792;2024-03-23T01:58:33;28.33;;;8.17;;
27893;SDS011;15240;50.812;4.792;2024-03-23T02:00:59;24.30;;;7.73;;
27893;SDS011;15240;50.812;4.792;2024-03-23T02:03:26;22.57;;;6.97;;
27893;SDS011;15240;50.812;4.792;2024-03-23T02:05:52;31.80;;;8.37;;
27893;SDS011;15240;50.812;4.792;2024-03-23T02:08:20;29.40;;;8.33;;
27893;SDS011;15240;50.812;4.792;2024-03-23T02:10:46;26.27;;;8.33;;
27893;SDS011;15240;50.812;4.792;2024-03-23T02:13:13;21.10;;;7.73;;
27893;SDS011;15240;50.812;4.792;2024-03-23T02:15:39;25.57;;;7.90;;
27893;SDS011;15240;50.812;4.792;2024-03-23T02:18:07;24.00;;;8.67;;
27893;SDS011;15240;50.812;4.792;2024-03-23T02:20:33;24.83;;;8.80;;
27893;SDS011;15240;50.812;4.792;2024-03-23T02:22:59;22.67;;;7.80;;
27893;SDS011;15240;50.812;4.792;2024-03-23T02:25:25;23.87;;;7.97;;
27893;SDS011;15240;50.812;4.792;2024-03-23T02:27:53;30.33;;;8.43;;
27893;SDS011;15240;50.812;4.792;2024-03-23T02:30:20;22.83;;;7.67;;
27893;SDS011;15240;50.812;4.792;2024-03-23T02:32:46;30.10;;;7.97;;
27893;SDS011;15240;50.812;4.792;2024-03-23T02:35:12;20.67;;;7.20;;
27893;SDS011;15240;50.812;4.792;2024-03-23T02:37:38;21.53;;;7.63;;
27893;SDS011;15240;50.812;4.792;2024-03-23T02:40:04;18.70;;;7.30;;
27893;SDS011;15240;50.812;4.792;2024-03-23T02:42:30;20.37;;;7.40;;
27893;SDS011;15240;50.812;4.792;2024-03-23T02:44:56;25.10;;;8.00;;
27893;SDS011;15240;50.812;4.792;2024-03-23T02:47:22;25.33;;;8.03;;
27893;SDS011;15240;50.812;4.792;2024-03-23T02:49:48;24.23;;;8.30;;
27893;SDS011;15240;50.812;4.792;2024-03-23T02:52:14;25.50;;;8.83;;
27893;SDS011;15240;50.812;4.792;2024-03-23T02:54:40;23.63;;;8.97;;
27893;SDS011;15240;50.812;4.792;2024-03-23T02:57:09;30.43;;;8.50;;
27893;SDS011;15240;50.812;4.792;2024-03-23T02:59:35;22.63;;;8.97;;
27893;SDS011;15240;50.812;4.792;2024-03-23T03:02:02;24.03;;;9.10;;
27893;SDS011;15240;50.812;4.792;2024-03-23T03:04:29;27.07;;;9.00;;
27893;SDS011;15240;50.812;4.792;2024-03-23T03:06:55;23.33;;;9.90;;
27893;SDS011;15240;50.812;4.792;2024-03-23T03:09:22;29.70;;;10.83;;
27893;SDS011;15240;50.812;4.792;2024-03-23T03:11:48;31.77;;;9.70;;
27893;SDS011;15240;50.812;4.792;2024-03-23T03:14:14;27.70;;;10.83;;
27893;SDS011;15240;50.812;4.792;2024-03-23T03:16:40;27.70;;;10.90;;
27893;SDS011;15240;50.812;4.792;2024-03-23T03:19:06;30.27;;;12.13;;
27893;SDS011;15240;50.812;4.792;2024-03-23T03:21:32;36.00;;;12.10;;
27893;SDS011;15240;50.812;4.792;2024-03-23T03:23:58;41.00;;;13.50;;
27893;SDS011;15240;50.812;4.792;2024-03-23T03:26:24;35.07;;;13.57;;
27893;SDS011;15240;50.812;4.792;2024-03-23T03:28:50;33.73;;;13.30;;
27893;SDS011;15240;50.812;4.792;2024-03-23T03:31:17;35.00;;;13.63;;
27893;SDS011;15240;50.812;4.792;2024-03-23T03:33:43;33.17;;;13.93;;
27893;SDS011;15240;50.812;4.792;2024-03-23T03:36:09;36.53;;;13.67;;
27893;SDS011;15240;50.812;4.792;2024-03-23T03:38:35;35.13;;;13.33;;
27893;SDS011;15240;50.812;4.792;2024-03-23T03:41:02;38.67;;;14.23;;
27893;SDS011;15240;50.812;4.792;2024-03-23T03:43:28;34.33;;;14.73;;
27893;SDS011;15240;50.812;4.792;2024-03-23T03:45:54;33.60;;;13.47;;
27893;SDS011;15240;50.812;4.792;2024-03-23T03:48:21;35.77;;;13.57;;
27893;SDS011;15240;50.812;4.792;2024-03-23T03:50:47;34.17;;;13.20;;
27893;SDS011;15240;50.812;4.792;2024-03-23T03:53:13;38.23;;;14.90;;
27893;SDS011;15240;50.812;4.792;2024-03-23T03:55:39;37.63;;;14.57;;
27893;SDS011;15240;50.812;4.792;2024-03-23T03:58:05;39.67;;;14.97;;
27893;SDS011;15240;50.812;4.792;2024-03-23T04:00:31;34.60;;;14.33;;
27893;SDS011;15240;50.812;4.792;2024-03-23T04:02:57;38.37;;;14.50;;
27893;SDS011;15240;50.812;4.792;2024-03-23T04:05:23;44.37;;;16.03;;
27893;SDS011;15240;50.812;4.792;2024-03-23T04:07:50;47.73;;;15.87;;
27893;SDS011;15240;50.812;4.792;2024-03-23T04:10:16;42.77;;;16.67;;
27893;SDS011;15240;50.812;4.792;2024-03-23T04:12:42;38.00;;;14.60;;
27893;SDS011;15240;50.812;4.792;2024-03-23T04:15:09;37.37;;;15.40;;
27893;SDS011;15240;50.812;4.792;2024-03-23T04:17:35;36.90;;;16.20;;
27893;SDS011;15240;50.812;4.792;2024-03-23T04:20:01;47.47;;;17.47;;
27893;SDS011;15240;50.812;4.792;2024-03-23T04:22:29;50.40;;;18.97;;
27893;SDS011;15240;50.812;4.792;2024-03-23T04:24:55;52.47;;;17.93;;
27893;SDS011;15240;50.812;4.792;2024-03-23T04:27:22;47.50;;;19.77;;
27893;SDS011;15240;50.812;4.792;2024-03-23T04:29:48;45.07;;;18.80;;
27893;SDS011;15240;50.812;4.792;2024-03-23T04:32:15;41.80;;;18.87;;
27893;SDS011;15240;50.812;4.792;2024-03-23T04:34:41;49.83;;;19.17;;
27893;SDS011;15240;50.812;4.792;2024-03-23T04:37:08;50.87;;;19.77;;
27893;SDS011;15240;50.812;4.792;2024-03-23T04:39:35;48.90;;;18.77;;
27893;SDS011;15240;50.812;4.792;2024-03-23T04:42:02;48.30;;;18.50;;
27893;SDS011;15240;50.812;4.792;2024-03-23T04:44:28;47.20;;;17.77;;
27893;SDS011;15240;50.812;4.792;2024-03-23T04:46:54;46.40;;;17.87;;
27893;SDS011;15240;50.812;4.792;2024-03-23T04:49:20;51.03;;;18.00;;
27893;SDS011;15240;50.812;4.792;2024-03-23T04:51:46;52.17;;;17.73;;
27893;SDS011;15240;50.812;4.792;2024-03-23T04:54:12;48.57;;;18.57;;
27893;SDS011;15240;50.812;4.792;2024-03-23T04:56:38;42.77;;;18.27;;
27893;SDS011;15240;50.812;4.792;2024-03-23T04:59:04;48.87;;;18.77;;
27893;SDS011;15240;50.812;4.792;2024-03-23T05:01:33;43.93;;;18.63;;
27893;SDS011;15240;50.812;4.792;2024-03-23T05:04:00;52.10;;;21.00;;
27893;SDS011;15240;50.812;4.792;2024-03-23T05:06:26;47.30;;;19.93;;
27893;SDS011;15240;50.812;4.792;2024-03-23T05:08:52;46.60;;;20.43;;
27893;SDS011;15240;50.812;4.792;2024-03-23T05:11:19;44.10;;;19.40;;
27893;SDS011;15240;50.812;4.792;2024-03-23T05:13:45;47.83;;;20.33;;
27893;SDS011;15240;50.812;4.792;2024-03-23T05:16:11;48.23;;;19.50;;
27893;SDS011;15240;50.812;4.792;2024-03-23T05:18:37;46.87;;;20.27;;
27893;SDS011;15240;50.812;4.792;2024-03-23T05:21:04;49.50;;;19.77;;
27893;SDS011;15240;50.812;4.792;2024-03-23T05:23:30;46.77;;;20.40;;
27893;SDS011;15240;50.812;4.792;2024-03-23T05:25:56;49.83;;;19.57;;
27893;SDS011;15240;50.812;4.792;2024-03-23T05:28:22;59.67;;;21.87;;
27893;SDS011;15240;50.812;4.792;2024-03-23T05:30:51;48.90;;;22.63;;
27893;SDS011;15240;50.812;4.792;2024-03-23T05:33:18;51.83;;;23.60;;
27893;SDS011;15240;50.812;4.792;2024-03-23T05:35:44;58.30;;;22.63;;
27893;SDS011;15240;50.812;4.792;2024-03-23T05:38:10;59.90;;;22.93;;
27893;SDS011;15240;50.812;4.792;2024-03-23T05:40:36;46.60;;;22.07;;
27893;SDS011;15240;50.812;4.792;2024-03-23T05:43:05;52.03;;;22.10;;
27893;SDS011;15240;50.812;4.792;2024-03-23T05:45:31;50.97;;;22.40;;
27893;SDS011;15240;50.812;4.792;2024-03-23T05:47:57;47.10;;;22.33;;
27893;SDS011;15240;50.812;4.792;2024-03-23T05:50:23;47.43;;;20.70;;
27893;SDS011;15240;50.812;4.792;2024-03-23T05:52:50;46.97;;;20.20;;
27893;SDS011;15240;50.812;4.792;2024-03-23T05:55:16;45.13;;;18.80;;
27893;SDS011;15240;50.812;4.792;2024-03-23T05:57:42;41.13;;;19.47;;
27893;SDS011;15240;50.812;4.792;2024-03-23T06:00:08;52.20;;;17.53;;
27893;SDS011;15240;50.812;4.792;2024-03-23T06:02:40;39.40;;;18.10;;
27893;SDS011;15240;50.812;4.792;2024-03-23T06:05:07;42.77;;;16.50;;
27893;SDS011;15240;50.812;4.792;2024-03-23T06:07:33;41.40;;;17.67;;
27893;SDS011;15240;50.812;4.792;2024-03-23T06:09:59;42.33;;;17.30;;
27893;SDS011;15240;50.812;4.792;2024-03-23T06:12:25;42.73;;;17.13;;
27893;SDS011;15240;50.812;4.792;2024-03-23T06:14:51;39.03;;;16.50;;
27893;SDS011;15240;50.812;4.792;2024-03-23T06:17:17;39.13;;;15.97;;
27893;SDS011;15240;50.812;4.792;2024-03-23T06:19:43;37.97;;;14.87;;
27893;SDS011;15240;50.812;4.792;2024-03-23T06:22:09;33.17;;;15.60;;
27893;SDS011;15240;50.812;4.792;2024-03-23T06:24:35;35.40;;;14.70;;
27893;SDS011;15240;50.812;4.792;2024-03-23T06:27:02;32.50;;;13.27;;
27893;SDS011;15240;50.812;4.792;2024-03-23T06:29:28;32.37;;;12.47;;
27893;SDS011;15240;50.812;4.792;2024-03-23T06:31:54;28.33;;;12.10;;
27893;SDS011;15240;50.812;4.792;2024-03-23T06:34:20;25.03;;;11.13;;
27893;SDS011;15240;50.812;4.792;2024-03-23T06:36:49;29.73;;;11.60;;
27893;SDS011;15240;50.812;4.792;2024-03-23T06:39:16;25.23;;;10.20;;
27893;SDS011;15240;50.812;4.792;2024-03-23T06:41:42;22.53;;;10.40;;
27893;SDS011;15240;50.812;4.792;2024-03-23T06:44:08;34.20;;;9.97;;
27893;SDS011;15240;50.812;4.792;2024-03-23T06:46:34;23.60;;;9.80;;
27893;SDS011;15240;50.812;4.792;2024-03-23T06:49:00;30.67;;;10.30;;
27893;SDS011;15240;50.812;4.792;2024-03-23T06:51:27;24.40;;;8.70;;
27893;SDS011;15240;50.812;4.792;2024-03-23T06:53:53;20.40;;;8.90;;
27893;SDS011;15240;50.812;4.792;2024-03-23T06:56:19;19.40;;;8.90;;
27893;SDS011;15240;50.812;4.792;2024-03-23T06:58:45;22.53;;;7.87;;
27893;SDS011;15240;50.812;4.792;2024-03-23T07:01:11;22.10;;;7.87;;
27893;SDS011;15240;50.812;4.792;2024-03-23T07:03:37;20.63;;;7.53;;
27893;SDS011;15240;50.812;4.792;2024-03-23T07:06:03;20.90;;;7.40;;
27893;SDS011;15240;50.812;4.792;2024-03-23T07:08:29;21.73;;;7.70;;
27893;SDS011;15240;50.812;4.792;2024-03-23T07:10:55;19.60;;;6.27;;
27893;SDS011;15240;50.812;4.792;2024-03-23T07:13:21;18.87;;;6.40;;
27893;SDS011;15240;50.812;4.792;2024-03-23T07:15:53;16.97;;;5.80;;
27893;SDS011;15240;50.812;4.792;2024-03-23T07:18:24;20.67;;;6.73;;
27893;SDS011;15240;50.812;4.792;2024-03-23T07:20:54;20.73;;;6.03;;
27893;SDS011;15240;50.812;4.792;2024-03-23T07:23:24;16.17;;;5.17;;
27893;SDS011;15240;50.812;4.792;2024-03-23T07:26:03;14.23;;;5.13;;
27893;SDS011;15240;50.812;4.792;2024-03-23T07:28:30;17.50;;;5.13;;
27893;SDS011;15240;50.812;4.792;2024-03-23T07:31:12;16.73;;;4.97;;
27893;SDS011;15240;50.812;4.792;2024-03-23T07:33:46;20.47;;;4.80;;
27893;SDS011;15240;50.812;4.792;2024-03-23T07:36:12;20.47;;;5.27;;
27893;SDS011;15240;50.812;4.792;2024-03-23T07:38:42;12.47;;;4.10;;
27893;SDS011;15240;50.812;4.792;2024-03-23T07:41:10;16.50;;;4.30;;
27893;SDS011;15240;50.812;4.792;2024-03-23T07:43:37;16.73;;;3.83;;
27893;SDS011;15240;50.812;4.792;2024-03-23T07:46:03;9.03;;;2.90;;
27893;SDS011;15240;50.812;4.792;2024-03-23T07:48:30;8.00;;;2.63;;
27893;SDS011;15240;50.812;4.792;2024-03-23T07:50:59;9.53;;;2.60;;
27893;SDS011;15240;50.812;4.792;2024-03-23T07:53:26;13.77;;;3.20;;
27893;SDS011;15240;50.812;4.792;2024-03-23T07:55:54;10.47;;;3.10;;
27893;SDS011;15240;50.812;4.792;2024-03-23T07:58:20;6.70;;;2.93;;
27893;SDS011;15240;50.812;4.792;2024-03-23T08:00:46;12.00;;;3.63;;
27893;SDS011;15240;50.812;4.792;2024-03-23T08:03:12;8.40;;;3.53;;
27893;SDS011;15240;50.812;4.792;2024-03-23T08:05:38;11.40;;;4.87;;
27893;SDS011;15240;50.812;4.792;2024-03-23T08:08:05;15.97;;;5.00;;
27893;SDS011;15240;50.812;4.792;2024-03-23T08:10:31;10.93;;;4.70;;
27893;SDS011;15240;50.812;4.792;2024-03-23T08:12:57;13.17;;;4.90;;
27893;SDS011;15240;50.812;4.792;2024-03-23T08:15:23;14.03;;;4.77;;
27893;SDS011;15240;50.812;4.792;2024-03-23T08:17:49;14.70;;;4.87;;
27893;SDS011;15240;50.812;4.792;2024-03-23T08:20:15;14.30;;;4.80;;
27893;SDS011;15240;50.812;4.792;2024-03-23T08:22:41;15.70;;;4.17;;
27893;SDS011;15240;50.812;4.792;2024-03-23T08:25:08;13.03;;;3.87;;
27893;SDS011;15240;50.812;4.792;2024-03-23T08:27:34;13.73;;;3.83;;
27893;SDS011;15240;50.812;4.792;2024-03-23T08:30:00;14.20;;;4.37;;
27893;SDS011;15240;50.812;4.792;2024-03-23T08:32:26;13.73;;;3.67;;
27893;SDS011;15240;50.812;4.792;2024-03-23T08:34:52;15.17;;;3.63;;
27893;SDS011;15240;50.812;4.792;2024-03-23T08:37:18;13.70;;;3.67;;
27893;SDS011;15240;50.812;4.792;2024-03-23T08:39:44;11.33;;;3.80;;
27893;SDS011;15240;50.812;4.792;2024-03-23T08:42:10;15.53;;;3.67;;
27893;SDS011;15240;50.812;4.792;2024-03-23T08:44:36;15.07;;;3.77;;
27893;SDS011;15240;50.812;4.792;2024-03-23T08:47:02;11.40;;;3.93;;
27893;SDS011;15240;50.812;4.792;2024-03-23T08:49:28;11.77;;;3.13;;
27893;SDS011;15240;50.812;4.792;2024-03-23T08:51:54;14.47;;;3.40;;
27893;SDS011;15240;50.812;4.792;2024-03-23T08:54:20;13.20;;;3.20;;
27893;SDS011;15240;50.812;4.792;2024-03-23T08:56:48;10.43;;;3.40;;
27893;SDS011;15240;50.812;4.792;2024-03-23T08:59:14;14.93;;;3.43;;
27893;SDS011;15240;50.812;4.792;2024-03-23T09:01:40;16.43;;;3.43;;
27893;SDS011;15240;50.812;4.792;2024-03-23T09:04:06;14.07;;;3.23;;
27893;SDS011;15240;50.812;4.792;2024-03-23T09:06:32;10.33;;;3.63;;
27893;SDS011;15240;50.812;4.792;2024-03-23T09:08:58;12.63;;;3.23;;
27893;SDS011;15240;50.812;4.792;2024-03-23T09:11:24;9.67;;;3.10;;
27893;SDS011;15240;50.812;4.792;2024-03-23T09:13:50;11.93;;;3.67;;
27893;SDS011;15240;50.812;4.792;2024-03-23T09:16:16;12.53;;;3.20;;
27893;SDS011;15240;50.812;4.792;2024-03-23T09:18:42;13.20;;;3.60;;
27893;SDS011;15240;50.812;4.792;2024-03-23T09:21:10;9.57;;;3.53;;
27893;SDS011;15240;50.812;4.792;2024-03-23T09:23:38;8.17;;;3.60;;
27893;SDS011;15240;50.812;4.792;2024-03-23T09:26:04;10.67;;;3.57;;
27893;SDS011;15240;50.812;4.792;2024-03-23T09:28:32;12.40;;;3.63;;
27893;SDS011;15240;50.812;4.792;2024-03-23T09:31:04;14.20;;;4.00;;
27893;SDS011;15240;50.812;4.792;2024-03-23T09:33:31;9.20;;;3.23;;
27893;SDS011;15240;50.812;4.792;2024-03-23T09:35:57;7.60;;;2.87;;
27893;SDS011;15240;50.812;4.792;2024-03-23T09:38:23;11.77;;;2.90;;
27893;SDS011;15240;50.812;4.792;2024-03-23T09:40:53;12.90;;;3.30;;
27893;SDS011;15240;50.812;4.792;2024-03-23T09:43:19;8.27;;;2.73;;
27893;SDS011;15240;50.812;4.792;2024-03-23T09:45:45;9.60;;;2.90;;
27893;SDS011;15240;50.812;4.792;2024-03-23T09:48:12;9.20;;;2.87;;
27893;SDS011;15240;50.812;4.792;2024-03-23T09:53:05;10.40;;;2.70;;
27893;SDS011;15240;50.812;4.792;2024-03-23T09:55:32;12.67;;;3.20;;
27893;SDS011;15240;50.812;4.792;2024-03-23T09:57:59;7.90;;;2.57;;
27893;SDS011;15240;50.812;4.792;2024-03-23T10:00:25;9.60;;;2.73;;
27893;SDS011;15240;50.812;4.792;2024-03-23T10:02:51;8.63;;;3.13;;
27893;SDS011;15240;50.812;4.792;2024-03-23T10:05:21;10.73;;;2.97;;
27893;SDS011;15240;50.812;4.792;2024-03-23T10:07:48;8.70;;;3.00;;
27893;SDS011;15240;50.812;4.792;2024-03-23T10:10:15;8.00;;;2.63;;
27893;SDS011;15240;50.812;4.792;2024-03-23T10:12:45;10.43;;;3.33;;
27893;SDS011;15240;50.812;4.792;2024-03-23T10:15:21;9.93;;;3.03;;
27893;SDS011;15240;50.812;4.792;2024-03-23T10:17:48;11.90;;;3.10;;
27893;SDS011;15240;50.812;4.792;2024-03-23T10:20:20;7.93;;;2.70;;
27893;SDS011;15240;50.812;4.792;2024-03-23T10:22:47;11.03;;;3.03;;
27893;SDS011;15240;50.812;4.792;2024-03-23T10:25:14;8.20;;;2.60;;
27893;SDS011;15240;50.812;4.792;2024-03-23T10:27:40;8.53;;;3.20;;
27893;SDS011;15240;50.812;4.792;2024-03-23T10:30:09;6.53;;;2.60;;
27893;SDS011;15240;50.812;4.792;2024-03-23T10:32:35;7.10;;;2.97;;
27893;SDS011;15240;50.812;4.792;2024-03-23T10:35:14;9.63;;;2.53;;
27893;SDS011;15240;50.812;4.792;2024-03-23T10:37:41;9.47;;;3.13;;
27893;SDS011;15240;50.812;4.792;2024-03-23T10:40:08;8.70;;;2.80;;
27893;SDS011;15240;50.812;4.792;2024-03-23T10:42:35;11.03;;;2.60;;
27893;SDS011;15240;50.812;4.792;2024-03-23T10:45:03;6.70;;;2.40;;
27893;SDS011;15240;50.812;4.792;2024-03-23T10:47:29;7.97;;;2.33;;
27893;SDS011;15240;50.812;4.792;2024-03-23T10:49:55;5.73;;;2.33;;
27893;SDS011;15240;50.812;4.792;2024-03-23T10:52:21;11.57;;;2.93;;
27893;SDS011;15240;50.812;4.792;2024-03-23T10:54:47;6.40;;;2.67;;
27893;SDS011;15240;50.812;4.792;2024-03-23T10:57:17;9.70;;;2.53;;
27893;SDS011;15240;50.812;4.792;2024-03-23T10:59:43;7.53;;;2.50;;
27893;SDS011;15240;50.812;4.792;2024-03-23T11:02:18;8.70;;;2.50;;
27893;SDS011;15240;50.812;4.792;2024-03-23T11:04:44;9.60;;;2.37;;
27893;SDS011;15240;50.812;4.792;2024-03-23T11:07:28;8.70;;;2.17;;
27893;SDS011;15240;50.812;4.792;2024-03-23T11:09:55;7.20;;;1.70;;
27893;SDS011;15240;50.812;4.792;2024-03-23T11:17:20;5.60;;;1.60;;
27893;SDS011;15240;50.812;4.792;2024-03-23T11:22:40;9.37;;;1.40;;
27893;SDS011;15240;50.812;4.792;2024-03-23T11:27:39;8.57;;;1.60;;
27893;SDS011;15240;50.812;4.792;2024-03-23T11:30:12;4.73;;;1.23;;
27893;SDS011;15240;50.812;4.792;2024-03-23T11:32:38;5.33;;;1.30;;
27893;SDS011;15240;50.812;4.792;2024-03-23T11:35:04;6.97;;;1.50;;
27893;SDS011;15240;50.812;4.792;2024-03-23T11:37:31;5.80;;;1.60;;
27893;SDS011;15240;50.812;4.792;2024-03-23T11:39:57;4.43;;;1.40;;
27893;SDS011;15240;50.812;4.792;2024-03-23T11:42:23;8.63;;;1.50;;
27893;SDS011;15240;50.812;4.792;2024-03-23T11:44:49;9.17;;;1.63;;
27893;SDS011;15240;50.812;4.792;2024-03-23T11:47:16;7.37;;;1.50;;
27893;SDS011;15240;50.812;4.792;2024-03-23T11:49:42;4.43;;;1.57;;
27893;SDS011;15240;50.812;4.792;2024-03-23T11:52:08;4.23;;;1.10;;
27893;SDS011;15240;50.812;4.792;2024-03-23T11:54:34;6.83;;;1.40;;
27893;SDS011;15240;50.812;4.792;2024-03-23T11:57:01;6.17;;;1.63;;
27893;SDS011;15240;50.812;4.792;2024-03-23T11:59:35;4.50;;;1.40;;
27893;SDS011;15240;50.812;4.792;2024-03-23T12:02:09;5.47;;;1.60;;
27893;SDS011;15240;50.812;4.792;2024-03-23T12:04:44;6.73;;;1.50;;
27893;SDS011;15240;50.812;4.792;2024-03-23T12:07:17;5.63;;;1.50;;
27893;SDS011;15240;50.812;4.792;2024-03-23T12:09:44;7.57;;;1.50;;
27893;SDS011;15240;50.812;4.792;2024-03-23T12:12:14;4.73;;;1.20;;
27893;SDS011;15240;50.812;4.792;2024-03-23T12:14:41;6.97;;;1.30;;
27893;SDS011;15240;50.812;4.792;2024-03-23T12:17:11;5.00;;;1.30;;
27893;SDS011;15240;50.812;4.792;2024-03-23T12:19:37;4.40;;;1.10;;
27893;SDS011;15240;50.812;4.792;2024-03-23T12:22:09;6.57;;;1.20;;
27893;SDS011;15240;50.812;4.792;2024-03-23T12:24:35;3.67;;;1.13;;
27893;SDS011;15240;50.812;4.792;2024-03-23T12:27:02;4.53;;;1.27;;
27893;SDS011;15240;50.812;4.792;2024-03-23T12:29:31;6.97;;;1.40;;
27893;SDS011;15240;50.812;4.792;2024-03-23T12:32:01;5.00;;;1.10;;
27893;SDS011;15240;50.812;4.792;2024-03-23T12:34:28;5.10;;;1.20;;
27893;SDS011;15240;50.812;4.792;2024-03-23T12:36:57;6.50;;;1.40;;
27893;SDS011;15240;50.812;4.792;2024-03-23T12:39:23;6.20;;;1.30;;
27893;SDS011;15240;50.812;4.792;2024-03-23T12:41:50;4.07;;;1.03;;
27893;SDS011;15240;50.812;4.792;2024-03-23T12:44:17;8.00;;;1.47;;
27893;SDS011;15240;50.812;4.792;2024-03-23T12:46:43;5.67;;;1.40;;
27893;SDS011;15240;50.812;4.792;2024-03-23T12:49:10;6.90;;;1.80;;
27893;SDS011;15240;50.812;4.792;2024-03-23T12:51:36;4.83;;;1.20;;
27893;SDS011;15240;50.812;4.792;2024-03-23T12:54:02;8.20;;;1.77;;
27893;SDS011;15240;50.812;4.792;2024-03-23T12:56:28;4.60;;;1.30;;
27893;SDS011;15240;50.812;4.792;2024-03-23T12:58:55;7.00;;;1.60;;
27893;SDS011;15240;50.812;4.792;2024-03-23T13:01:25;6.60;;;1.67;;
27893;SDS011;15240;50.812;4.792;2024-03-23T13:03:51;5.10;;;1.37;;
27893;SDS011;15240;50.812;4.792;2024-03-23T13:06:18;6.83;;;1.40;;
27893;SDS011;15240;50.812;4.792;2024-03-23T13:08:47;10.43;;;1.30;;
27893;SDS011;15240;50.812;4.792;2024-03-23T13:11:15;4.57;;;1.20;;
27893;SDS011;15240;50.812;4.792;2024-03-23T13:13:41;6.23;;;1.10;;
27893;SDS011;15240;50.812;4.792;2024-03-23T13:16:07;7.30;;;1.30;;
27893;SDS011;15240;50.812;4.792;2024-03-23T13:18:33;8.33;;;1.70;;
27893;SDS011;15240;50.812;4.792;2024-03-23T13:20:59;4.53;;;1.30;;
27893;SDS011;15240;50.812;4.792;2024-03-23T13:23:25;4.43;;;1.17;;
27893;SDS011;15240;50.812;4.792;2024-03-23T13:25:52;6.43;;;1.40;;
27893;SDS011;15240;50.812;4.792;2024-03-23T13:28:21;3.87;;;1.03;;
27893;SDS011;15240;50.812;4.792;2024-03-23T13:30:51;7.47;;;1.23;;
27893;SDS011;15240;50.812;4.792;2024-03-23T13:33:17;6.53;;;1.20;;
27893;SDS011;15240;50.812;4.792;2024-03-23T13:35:52;6.73;;;1.30;;
27893;SDS011;15240;50.812;4.792;2024-03-23T13:38:19;3.43;;;1.03;;
27893;SDS011;15240;50.812;4.792;2024-03-23T13:40:50;2.80;;;0.80;;
27893;SDS011;15240;50.812;4.792;2024-03-23T13:43:16;5.47;;;1.30;;
27893;SDS011;15240;50.812;4.792;2024-03-23T13:45:42;4.47;;;1.07;;
27893;SDS011;15240;50.812;4.792;2024-03-23T13:48:08;5.37;;;1.00;;
27893;SDS011;15240;50.812;4.792;2024-03-23T13:50:34;5.37;;;1.00;;
27893;SDS011;15240;50.812;4.792;2024-03-23T13:53:00;3.27;;;0.80;;
27893;SDS011;15240;50.812;4.792;2024-03-23T13:55:26;4.93;;;1.00;;
27893;SDS011;15240;50.812;4.792;2024-03-23T13:57:52;4.83;;;0.90;;
27893;SDS011;15240;50.812;4.792;2024-03-23T14:00:18;3.57;;;0.80;;
27893;SDS011;15240;50.812;4.792;2024-03-23T14:02:45;3.20;;;0.77;;
27893;SDS011;15240;50.812;4.792;2024-03-23T14:05:11;4.43;;;0.90;;
27893;SDS011;15240;50.812;4.792;2024-03-23T14:07:37;4.83;;;1.00;;
27893;SDS011;15240;50.812;4.792;2024-03-23T14:10:03;5.07;;;1.13;;
27893;SDS011;15240;50.812;4.792;2024-03-23T14:12:31;4.93;;;1.10;;
27893;SDS011;15240;50.812;4.792;2024-03-23T14:14:57;3.80;;;0.87;;
27893;SDS011;15240;50.812;4.792;2024-03-23T14:17:23;3.43;;;0.97;;
27893;SDS011;15240;50.812;4.792;2024-03-23T14:19:51;2.83;;;0.73;;
27893;SDS011;15240;50.812;4.792;2024-03-23T14:22:17;4.73;;;0.90;;
27893;SDS011;15240;50.812;4.792;2024-03-23T14:24:45;3.30;;;0.67;;
27893;SDS011;15240;50.812;4.792;2024-03-23T14:27:11;3.53;;;0.60;;
27893;SDS011;15240;50.812;4.792;2024-03-23T14:29:37;4.07;;;0.80;;
27893;SDS011;15240;50.812;4.792;2024-03-23T14:32:03;6.27;;;1.03;;
27893;SDS011;15240;50.812;4.792;2024-03-23T14:34:30;5.53;;;1.00;;
27893;SDS011;15240;50.812;4.792;2024-03-23T14:36:56;3.57;;;1.10;;
27893;SDS011;15240;50.812;4.792;2024-03-23T14:39:22;4.27;;;0.70;;
27893;SDS011;15240;50.812;4.792;2024-03-23T14:41:49;4.27;;;0.97;;
27893;SDS011;15240;50.812;4.792;2024-03-23T14:44:16;4.43;;;1.13;;
27893;SDS011;15240;50.812;4.792;2024-03-23T14:46:42;3.77;;;0.90;;
27893;SDS011;15240;50.812;4.792;2024-03-23T14:49:08;3.50;;;0.60;;
27893;SDS011;15240;50.812;4.792;2024-03-23T14:51:34;4.47;;;0.87;;
27893;SDS011;15240;50.812;4.792;2024-03-23T14:54:00;4.60;;;1.17;;
27893;SDS011;15240;50.812;4.792;2024-03-23T14:56:27;5.00;;;1.30;;
27893;SDS011;15240;50.812;4.792;2024-03-23T14:58:53;4.77;;;1.30;;
27893;SDS011;15240;50.812;4.792;2024-03-23T15:01:20;5.23;;;1.03;;
27893;SDS011;15240;50.812;4.792;2024-03-23T15:03:46;5.17;;;1.30;;
27893;SDS011;15240;50.812;4.792;2024-03-23T15:06:12;5.93;;;1.10;;
27893;SDS011;15240;50.812;4.792;2024-03-23T15:08:39;4.40;;;1.00;;
27893;SDS011;15240;50.812;4.792;2024-03-23T15:11:08;4.60;;;1.10;;
27893;SDS011;15240;50.812;4.792;2024-03-23T15:13:35;4.13;;;1.10;;
27893;SDS011;15240;50.812;4.792;2024-03-23T15:16:01;4.10;;;1.33;;
27893;SDS011;15240;50.812;4.792;2024-03-23T15:18:30;6.20;;;1.37;;
27893;SDS011;15240;50.812;4.792;2024-03-23T15:21:00;3.83;;;1.40;;
27893;SDS011;15240;50.812;4.792;2024-03-23T15:23:34;7.47;;;1.20;;
27893;SDS011;15240;50.812;4.792;2024-03-23T15:26:01;7.33;;;1.37;;
27893;SDS011;15240;50.812;4.792;2024-03-23T15:28:27;4.97;;;1.07;;
27893;SDS011;15240;50.812;4.792;2024-03-23T15:31:06;5.67;;;1.53;;
27893;SDS011;15240;50.812;4.792;2024-03-23T15:33:32;4.57;;;1.00;;
27893;SDS011;15240;50.812;4.792;2024-03-23T15:35:59;6.47;;;1.57;;
27893;SDS011;15240;50.812;4.792;2024-03-23T15:38:25;4.80;;;1.67;;
27893;SDS011;15240;50.812;4.792;2024-03-23T15:40:51;5.70;;;1.50;;